Time;durP1;ratioP1;P1;durP2;ratioP2;P2;SDS_P1;SDS_P2;PMS_P1;PMS_P2;Temp;Humidity;BMP_temperature;BMP_pressure;BME280_temperature;BME280_humidity;BME280_pressure;Samples;Min_cycle;Max_cycle;Signal;HPM_P1;HPM_P2
2023/12/27 00:00:35;;;;;;;;;;;3.80;99.90;;;;;;5051926;28;20010;-77
2023/12/27 00:03:01;;;;;;;;;;;4.10;99.90;;;;;;5036610;28;19968;-78
2023/12/27 00:05:26;;;;;;;;;;;4.40;99.90;;;;;;5043467;28;20380;-78
2023/12/27 00:07:52;;;;;;;;;;;4.70;99.90;;;;;;5046266;28;20394;-78
2023/12/27 00:10:17;;;;;;;;;;;4.10;99.90;;;;;;5042833;28;19920;-77
2023/12/27 00:12:43;;;;;;;;;;;4.40;99.90;;;;;;5049692;28;19927;-77
2023/12/27 00:15:08;;;;;;;;;;;3.80;99.90;;;;;;5049523;28;20460;-78
2023/12/27 00:17:34;;;;;;;;;;;4.00;99.90;;;;;;5047081;28;19986;-78
2023/12/27 00:20:00;;;;;;;;;;;4.10;99.90;;;;;;5047161;28;20367;-78
2023/12/27 00:22:25;;;;;;;;;;;3.60;99.90;;;;;;5067091;28;19959;-77
2023/12/27 00:24:51;;;;;;;;;;;4.00;99.90;;;;;;5058251;28;20295;-77
2023/12/27 00:27:16;;;;;;;;;;;5.20;99.90;;;;;;5047222;28;20008;-77
2023/12/27 00:29:42;;;;;;;;;;;3.70;99.90;;;;;;5041636;28;19920;-78
2023/12/27 00:32:08;;;;;;;;;;;4.00;99.90;;;;;;5043573;28;20314;-78
2023/12/27 00:34:34;;;;;;;;;;;4.00;99.90;;;;;;5050919;28;20342;-78
2023/12/27 00:37:00;;;;;;;;;;;3.90;99.90;;;;;;5048738;28;19920;-77
2023/12/27 00:39:26;;;;;;;;;;;3.70;99.90;;;;;;5066928;28;19955;-77
2023/12/27 00:41:52;;;;;;;;;;;4.00;99.90;;;;;;5049451;28;19924;-78
2023/12/27 00:44:17;;;;;;;;;;;4.00;99.90;;;;;;5050158;28;20307;-77
2023/12/27 00:46:43;;;;;;;;;;;4.70;99.90;;;;;;5051512;28;19916;-78
2023/12/27 00:49:08;;;;;;;;;;;3.70;99.90;;;;;;5050742;28;20082;-79
2023/12/27 00:51:34;;;;;;;;;;;4.00;99.90;;;;;;5051260;28;20204;-80
2023/12/27 00:53:59;;;;;;;;;;;3.70;99.90;;;;;;5049642;28;20038;-77
2023/12/27 00:56:25;;;;;;;;;;;3.70;99.90;;;;;;5049887;28;19947;-77
2023/12/27 00:58:51;;;;;;;;;;;3.60;99.90;;;;;;5041910;28;19917;-78
2023/12/27 01:01:16;;;;;;;;;;;3.60;99.90;;;;;;5044122;28;20169;-78
2023/12/27 01:03:42;;;;;;;;;;;3.60;99.90;;;;;;5046655;28;19939;-78
2023/12/27 01:06:08;;;;;;;;;;;3.60;99.90;;;;;;5048494;28;20381;-78
2023/12/27 01:08:34;;;;;;;;;;;3.50;99.90;;;;;;5047356;28;19944;-78
2023/12/27 01:10:59;;;;;;;;;;;3.50;99.90;;;;;;5045774;28;19916;-77
2023/12/27 01:13:25;;;;;;;;;;;3.50;99.90;;;;;;5066948;28;19943;-78
2023/12/27 01:15:50;;;;;;;;;;;4.60;99.90;;;;;;5050626;28;19971;-77
2023/12/27 01:18:16;;;;;;;;;;;3.40;99.90;;;;;;5041573;28;19943;-77
2023/12/27 01:20:41;;;;;;;;;;;3.40;99.90;;;;;;5050954;28;19927;-77
2023/12/27 01:23:07;;;;;;;;;;;4.50;99.90;;;;;;5070905;28;19921;-77
2023/12/27 01:25:32;;;;;;;;;;;4.50;99.90;;;;;;5051535;28;19928;-77
2023/12/27 01:27:58;;;;;;;;;;;3.50;99.90;;;;;;5050699;28;19974;-78
2023/12/27 01:30:23;;;;;;;;;;;3.30;99.90;;;;;;5044269;28;20004;-77
2023/12/27 01:32:49;;;;;;;;;;;3.40;99.90;;;;;;5042706;28;19985;-77
2023/12/27 01:35:15;;;;;;;;;;;3.50;99.90;;;;;;5054302;28;20132;-77
2023/12/27 01:37:41;;;;;;;;;;;3.30;99.90;;;;;;5071127;28;19928;-78
2023/12/27 01:40:07;;;;;;;;;;;3.30;99.90;;;;;;5053580;28;19925;-77
2023/12/27 01:42:33;;;;;;;;;;;3.30;99.90;;;;;;5047576;28;20058;-77
2023/12/27 01:44:59;;;;;;;;;;;3.30;99.90;;;;;;5034178;28;20522;-77
2023/12/27 01:47:25;;;;;;;;;;;3.20;99.90;;;;;;5050256;28;20015;-77
2023/12/27 01:49:51;;;;;;;;;;;3.20;99.90;;;;;;5049826;28;19920;-77
2023/12/27 01:52:16;;;;;;;;;;;3.50;99.90;;;;;;5049155;28;19931;-77
2023/12/27 01:54:42;;;;;;;;;;;3.40;99.90;;;;;;5044012;28;20394;-78
2023/12/27 01:57:08;;;;;;;;;;;3.20;99.90;;;;;;5047696;28;19925;-77
2023/12/27 01:59:34;;;;;;;;;;;3.40;99.90;;;;;;5054412;28;20021;-77
2023/12/27 02:01:59;;;;;;;;;;;3.20;99.90;;;;;;5044648;28;19920;-77
2023/12/27 02:04:25;;;;;;;;;;;3.10;99.90;;;;;;5041201;28;20019;-77
2023/12/27 02:06:51;;;;;;;;;;;3.10;99.90;;;;;;5042815;28;19925;-77
2023/12/27 02:09:17;;;;;;;;;;;3.10;99.90;;;;;;5038001;28;20386;-77
2023/12/27 02:11:43;;;;;;;;;;;3.10;99.90;;;;;;5051683;28;20020;-77
2023/12/27 02:14:08;;;;;;;;;;;3.10;99.90;;;;;;5051355;28;20050;-78
2023/12/27 02:16:34;;;;;;;;;;;3.10;99.90;;;;;;5042399;28;19920;-78
2023/12/27 02:19:01;;;;;;;;;;;3.10;99.90;;;;;;5046828;28;19928;-78
2023/12/27 02:21:27;;;;;;;;;;;3.00;99.90;;;;;;5040830;28;19924;-78
2023/12/27 02:23:55;;;;;;;;;;;3.70;99.90;;;;;;5047003;28;19927;-77
2023/12/27 02:26:21;;;;;;;;;;;3.00;99.90;;;;;;5037484;28;19920;-78
2023/12/27 02:28:46;;;;;;;;;;;3.00;99.90;;;;;;5049030;28;19931;-77
2023/12/27 02:31:12;;;;;;;;;;;2.90;99.90;;;;;;5052567;28;20383;-78
2023/12/27 02:33:40;;;;;;;;;;;2.90;99.90;;;;;;5051286;28;20372;-79
2023/12/27 02:36:05;;;;;;;;;;;2.90;99.90;;;;;;5052288;28;19924;-79
2023/12/27 02:38:31;;;;;;;;;;;2.90;99.90;;;;;;5054369;28;19921;-79
2023/12/27 02:40:57;;;;;;;;;;;2.90;99.90;;;;;;5050522;28;19928;-79
2023/12/27 02:43:22;;;;;;;;;;;2.90;99.90;;;;;;5048443;28;20258;-79
2023/12/27 02:45:48;;;;;;;;;;;2.90;99.90;;;;;;5034193;28;19928;-79
2023/12/27 02:48:13;;;;;;;;;;;2.90;99.90;;;;;;5051238;28;19920;-78
2023/12/27 02:50:39;;;;;;;;;;;2.90;99.90;;;;;;5052727;28;19928;-78
2023/12/27 02:53:04;;;;;;;;;;;2.80;99.90;;;;;;5048930;28;19932;-79
2023/12/27 02:55:30;;;;;;;;;;;2.80;99.90;;;;;;5046123;28;19921;-79
2023/12/27 02:57:57;;;;;;;;;;;2.80;99.90;;;;;;5050403;28;19920;-79
2023/12/27 03:00:23;;;;;;;;;;;2.80;99.90;;;;;;5054429;28;20283;-79
2023/12/27 03:02:48;;;;;;;;;;;3.10;99.90;;;;;;5053881;28;19927;-79
2023/12/27 03:05:14;;;;;;;;;;;2.70;99.90;;;;;;5048061;28;19938;-79
2023/12/27 03:07:39;;;;;;;;;;;3.10;99.90;;;;;;5043163;28;19933;-78
2023/12/27 03:10:05;;;;;;;;;;;2.70;99.90;;;;;;5043638;28;19920;-79
2023/12/27 03:12:31;;;;;;;;;;;2.70;99.90;;;;;;5050246;28;20054;-78
2023/12/27 03:14:56;;;;;;;;;;;3.10;99.90;;;;;;5045216;28;20006;-77
2023/12/27 03:17:22;;;;;;;;;;;2.70;99.90;;;;;;5033247;28;19927;-77
2023/12/27 03:19:48;;;;;;;;;;;2.70;99.90;;;;;;5043012;28;20431;-77
2023/12/27 03:22:13;;;;;;;;;;;3.40;99.90;;;;;;5052815;28;19928;-77
2023/12/27 03:24:39;;;;;;;;;;;2.70;99.90;;;;;;5052240;28;20046;-78
2023/12/27 03:27:04;;;;;;;;;;;3.10;99.90;;;;;;5046893;28;19990;-77
2023/12/27 03:29:30;;;;;;;;;;;2.70;99.90;;;;;;5052198;28;19924;-77
2023/12/27 03:31:55;;;;;;;;;;;2.90;99.90;;;;;;5035032;28;19978;-77
2023/12/27 03:34:21;;;;;;;;;;;2.70;99.90;;;;;;5051668;28;20289;-77
2023/12/27 03:36:46;;;;;;;;;;;2.70;99.90;;;;;;5052099;28;19925;-77
2023/12/27 03:39:12;;;;;;;;;;;2.70;99.90;;;;;;5035150;28;19952;-76
2023/12/27 03:41:37;;;;;;;;;;;2.70;99.90;;;;;;5052265;28;19927;-77
2023/12/27 03:44:03;;;;;;;;;;;2.60;99.90;;;;;;5047252;28;19961;-77
2023/12/27 03:46:28;;;;;;;;;;;2.70;99.90;;;;;;5050438;28;19947;-77
2023/12/27 03:48:54;;;;;;;;;;;2.60;99.90;;;;;;5051891;28;19972;-77
2023/12/27 03:51:23;;;;;;;;;;;2.60;99.90;;;;;;5051477;28;20366;-77
2023/12/27 03:53:48;;;;;;;;;;;2.60;99.90;;;;;;5051294;28;19966;-77
2023/12/27 03:56:14;;;;;;;;;;;2.60;99.90;;;;;;5040451;28;19971;-78
2023/12/27 03:58:43;;;;;;;;;;;2.60;99.90;;;;;;5045237;28;19920;-77
2023/12/27 04:01:09;;;;;;;;;;;2.60;99.90;;;;;;5050416;28;20003;-77
2023/12/27 04:03:34;;;;;;;;;;;2.60;99.90;;;;;;5051583;28;20359;-77
2023/12/27 04:06:00;;;;;;;;;;;2.60;99.90;;;;;;5045318;28;20291;-78
2023/12/27 04:08:25;;;;;;;;;;;2.60;99.90;;;;;;5032350;28;20380;-78
2023/12/27 04:10:51;;;;;;;;;;;2.80;99.90;;;;;;5049263;28;19971;-77
2023/12/27 04:13:16;;;;;;;;;;;2.60;99.90;;;;;;5040393;28;19924;-77
2023/12/27 04:15:42;;;;;;;;;;;2.60;99.90;;;;;;5048411;28;19935;-77
2023/12/27 04:18:11;;;;;;;;;;;2.60;99.90;;;;;;5031996;28;19928;-78
2023/12/27 04:20:36;;;;;;;;;;;2.60;99.90;;;;;;5045234;28;19940;-76
2023/12/27 04:23:02;;;;;;;;;;;2.60;99.90;;;;;;5031934;28;19921;-77
2023/12/27 04:25:27;;;;;;;;;;;2.60;99.90;;;;;;5047840;28;19920;-77
2023/12/27 04:27:53;;;;;;;;;;;3.60;99.90;;;;;;5042556;28;20771;-77
2023/12/27 04:30:18;;;;;;;;;;;2.60;99.90;;;;;;5050951;28;20391;-78
2023/12/27 04:32:44;;;;;;;;;;;2.80;99.90;;;;;;5045021;28;19974;-77
2023/12/27 04:35:10;;;;;;;;;;;2.60;99.90;;;;;;5040397;28;20372;-77
2023/12/27 04:37:35;;;;;;;;;;;2.60;99.90;;;;;;5044534;28;19920;-77
2023/12/27 04:40:01;;;;;;;;;;;2.60;99.90;;;;;;5051166;28;20272;-77
2023/12/27 04:42:26;;;;;;;;;;;2.80;99.90;;;;;;5049663;28;19931;-78
2023/12/27 04:44:52;;;;;;;;;;;2.70;99.90;;;;;;5046861;28;19920;-78
2023/12/27 04:47:17;;;;;;;;;;;2.60;99.90;;;;;;5048468;28;19942;-78
2023/12/27 04:49:43;;;;;;;;;;;2.60;99.90;;;;;;5049716;28;20364;-78
2023/12/27 04:52:09;;;;;;;;;;;2.60;99.90;;;;;;5045572;28;19935;-77
2023/12/27 04:54:34;;;;;;;;;;;2.60;99.90;;;;;;5053588;28;19927;-77
2023/12/27 04:57:00;;;;;;;;;;;2.60;99.90;;;;;;5053669;28;19921;-78
2023/12/27 04:59:26;;;;;;;;;;;2.60;99.90;;;;;;5043143;28;19927;-77
2023/12/27 05:01:53;;;;;;;;;;;2.60;99.90;;;;;;5045474;28;19928;-77
2023/12/27 05:04:18;;;;;;;;;;;2.70;99.90;;;;;;5042862;28;19927;-78
2023/12/27 05:06:44;;;;;;;;;;;2.60;99.90;;;;;;5052662;28;19920;-78
2023/12/27 05:09:09;;;;;;;;;;;2.60;99.90;;;;;;5048653;28;20400;-78
2023/12/27 05:11:35;;;;;;;;;;;2.60;99.90;;;;;;5050415;28;19970;-78
2023/12/27 05:14:00;;;;;;;;;;;2.60;99.90;;;;;;5041929;28;19943;-79
2023/12/27 05:16:26;;;;;;;;;;;2.60;99.90;;;;;;5043493;28;19924;-78
2023/12/27 05:18:51;;;;;;;;;;;2.60;99.90;;;;;;5050837;28;19944;-77
2023/12/27 05:21:18;;;;;;;;;;;2.60;99.90;;;;;;5054849;28;19921;-78
2023/12/27 05:23:43;;;;;;;;;;;2.60;99.90;;;;;;5055956;28;20011;-78
2023/12/27 05:26:09;;;;;;;;;;;2.60;99.90;;;;;;5052522;28;20011;-78
2023/12/27 05:28:35;;;;;;;;;;;3.40;99.90;;;;;;5055122;28;19965;-78
2023/12/27 05:31:00;;;;;;;;;;;2.60;99.90;;;;;;5053349;28;20057;-78
2023/12/27 05:33:26;;;;;;;;;;;2.80;99.90;;;;;;5046500;28;20067;-78
2023/12/27 05:35:52;;;;;;;;;;;2.60;99.90;;;;;;5044568;28;19925;-78
2023/12/27 05:38:17;;;;;;;;;;;2.60;99.90;;;;;;5052214;28;20269;-78
2023/12/27 05:40:43;;;;;;;;;;;2.60;99.90;;;;;;5053681;28;20046;-78
2023/12/27 05:43:09;;;;;;;;;;;2.60;99.90;;;;;;5052819;28;20551;-79
2023/12/27 05:45:34;;;;;;;;;;;2.70;99.90;;;;;;5055085;28;20279;-78
2023/12/27 05:48:00;;;;;;;;;;;2.70;99.90;;;;;;5053578;28;19924;-78
2023/12/27 05:50:26;;;;;;;;;;;2.70;99.90;;;;;;5055441;28;19920;-79
2023/12/27 05:52:51;;;;;;;;;;;2.70;99.90;;;;;;5053610;28;19974;-80
2023/12/27 05:55:17;;;;;;;;;;;3.10;99.90;;;;;;5054763;28;19924;-79
2023/12/27 05:57:42;;;;;;;;;;;3.50;99.90;;;;;;5052210;28;20019;-79
2023/12/27 06:00:08;;;;;;;;;;;2.80;99.90;;;;;;5043938;28;19931;-79
2023/12/27 06:02:34;;;;;;;;;;;2.80;99.90;;;;;;5050286;28;19969;-79
2023/12/27 06:05:00;;;;;;;;;;;2.80;99.90;;;;;;5046857;28;19974;-78
2023/12/27 06:07:25;;;;;;;;;;;2.80;99.90;;;;;;5050801;28;20521;-78
2023/12/27 06:09:51;;;;;;;;;;;2.80;99.90;;;;;;5050420;28;19929;-79
2023/12/27 06:12:17;;;;;;;;;;;2.80;99.90;;;;;;5053285;28;19943;-79
2023/12/27 06:14:42;;;;;;;;;;;3.00;99.90;;;;;;5064959;28;20544;-80
2023/12/27 06:17:08;;;;;;;;;;;2.80;99.90;;;;;;5049675;28;20323;-79
2023/12/27 06:19:36;;;;;;;;;;;3.20;99.90;;;;;;5051860;28;19956;-79
2023/12/27 06:22:02;;;;;;;;;;;2.90;99.90;;;;;;5052312;28;19921;-78
2023/12/27 06:24:28;;;;;;;;;;;2.90;99.90;;;;;;5054493;28;19921;-79
2023/12/27 06:26:54;;;;;;;;;;;2.90;99.90;;;;;;5053040;28;20264;-78
2023/12/27 06:29:19;;;;;;;;;;;3.00;99.90;;;;;;5051762;28;19966;-79
2023/12/27 06:31:45;;;;;;;;;;;3.00;99.90;;;;;;5053608;28;19963;-79
2023/12/27 06:34:10;;;;;;;;;;;3.00;99.90;;;;;;5050035;28;19967;-79
2023/12/27 06:36:36;;;;;;;;;;;3.10;99.90;;;;;;5047039;28;19932;-79
2023/12/27 06:39:01;;;;;;;;;;;3.40;99.90;;;;;;5049880;28;19920;-79
2023/12/27 06:41:27;;;;;;;;;;;3.00;99.90;;;;;;5033285;28;20015;-79
2023/12/27 06:43:53;;;;;;;;;;;3.60;99.90;;;;;;5039841;28;19924;-78
2023/12/27 06:46:19;;;;;;;;;;;3.10;99.90;;;;;;5042132;28;19920;-79
2023/12/27 06:48:44;;;;;;;;;;;3.10;99.90;;;;;;5048020;28;19920;-79
2023/12/27 06:51:11;;;;;;;;;;;3.10;99.90;;;;;;5052810;28;19943;-78
2023/12/27 06:53:36;;;;;;;;;;;3.10;99.90;;;;;;5050329;28;19969;-79
2023/12/27 06:56:02;;;;;;;;;;;3.70;99.90;;;;;;5046934;28;20356;-78
2023/12/27 06:58:28;;;;;;;;;;;3.10;99.90;;;;;;5046317;28;19970;-79
2023/12/27 07:00:53;;;;;;;;;;;3.10;99.90;;;;;;5047775;28;20292;-78
2023/12/27 07:03:19;;;;;;;;;;;3.50;99.90;;;;;;5054983;28;19951;-78
2023/12/27 07:05:44;;;;;;;;;;;3.30;99.90;;;;;;5051965;28;19920;-79
2023/12/27 07:08:11;;;;;;;;;;;3.20;99.90;;;;;;5050509;28;19981;-78
2023/12/27 07:10:36;;;;;;;;;;;3.20;99.90;;;;;;5036111;28;19932;-77
2023/12/27 07:13:02;;;;;;;;;;;3.40;99.90;;;;;;5041555;28;19929;-78
2023/12/27 07:15:29;;;;;;;;;;;3.20;99.90;;;;;;5050339;28;20418;-77
2023/12/27 07:17:54;;;;;;;;;;;3.30;99.90;;;;;;5046897;28;19927;-78
2023/12/27 07:20:21;;;;;;;;;;;4.30;99.90;;;;;;5047060;28;19921;-77
2023/12/27 07:22:47;;;;;;;;;;;3.30;99.90;;;;;;5048607;28;19933;-77
2023/12/27 07:25:12;;;;;;;;;;;3.40;99.90;;;;;;5046949;28;20284;-77
2023/12/27 07:27:38;;;;;;;;;;;3.30;99.90;;;;;;5049034;28;19920;-77
2023/12/27 07:30:04;;;;;;;;;;;3.70;99.90;;;;;;5048356;28;20327;-77
2023/12/27 07:32:30;;;;;;;;;;;3.30;99.90;;;;;;5044128;28;19921;-76
2023/12/27 07:34:57;;;;;;;;;;;3.40;99.90;;;;;;5046474;28;19927;-78
2023/12/27 07:37:23;;;;;;;;;;;3.40;99.90;;;;;;5049171;28;19974;-79
2023/12/27 07:39:49;;;;;;;;;;;3.40;99.90;;;;;;5043262;28;20368;-78
2023/12/27 07:42:14;;;;;;;;;;;3.40;99.90;;;;;;5039789;28;20428;-79
2023/12/27 07:44:40;;;;;;;;;;;3.40;99.90;;;;;;5046307;28;19994;-79
2023/12/27 07:47:06;;;;;;;;;;;3.50;99.90;;;;;;5047919;28;20000;-79
2023/12/27 07:49:32;;;;;;;;;;;3.50;99.90;;;;;;5048291;28;20371;-79
2023/12/27 07:51:59;;;;;;;;;;;3.50;99.90;;;;;;5045697;28;19968;-79
2023/12/27 07:54:25;;;;;;;;;;;3.50;99.90;;;;;;5049444;28;19930;-78
2023/12/27 07:56:51;;;;;;;;;;;3.60;99.90;;;;;;5058059;28;19920;-77
2023/12/27 07:59:17;;;;;;;;;;;3.50;99.90;;;;;;5067318;28;19920;-78
2023/12/27 08:01:43;;;;;;;;;;;3.70;99.90;;;;;;5060820;28;19967;-79
2023/12/27 08:04:09;;;;;;;;;;;3.60;99.90;;;;;;5047024;28;19975;-78
2023/12/27 08:06:34;;;;;;;;;;;3.60;99.90;;;;;;5049613;28;19998;-78
2023/12/27 08:09:00;;;;;;;;;;;3.60;99.90;;;;;;5046302;28;19966;-79
2023/12/27 08:11:26;;;;;;;;;;;3.70;99.90;;;;;;5053459;28;19920;-80
2023/12/27 08:13:51;;;;;;;;;;;3.70;99.90;;;;;;5070564;28;20336;-79
2023/12/27 08:16:17;;;;;;;;;;;3.70;99.90;;;;;;5064248;28;19928;-78
2023/12/27 08:18:42;;;;;;;;;;;3.70;99.90;;;;;;5052666;28;19945;-78
2023/12/27 08:21:08;;;;;;;;;;;3.70;99.90;;;;;;5050501;28;19931;-78
2023/12/27 08:23:35;;;;;;;;;;;3.80;99.90;;;;;;5052900;28;19920;-78
2023/12/27 08:26:06;;;;;;;;;;;3.80;99.90;;;;;;5037114;28;20039;-77
2023/12/27 08:28:35;;;;;;;;;;;3.80;99.90;;;;;;5047828;28;19943;-77
2023/12/27 08:31:02;;;;;;;;;;;3.80;99.90;;;;;;5052150;28;19927;-78
2023/12/27 08:33:30;;;;;;;;;;;3.80;99.90;;;;;;5052492;28;19924;-78
2023/12/27 08:35:56;;;;;;;;;;;3.90;99.90;;;;;;5049649;28;20329;-78
2023/12/27 08:38:23;;;;;;;;;;;4.20;99.90;;;;;;5048223;28;19928;-78
2023/12/27 08:40:49;;;;;;;;;;;4.10;99.90;;;;;;5050077;28;19920;-78
2023/12/27 08:43:14;;;;;;;;;;;3.90;99.90;;;;;;5050229;28;20379;-78
2023/12/27 08:45:40;;;;;;;;;;;4.00;99.90;;;;;;5052238;28;19920;-78
2023/12/27 08:48:06;;;;;;;;;;;4.20;99.90;;;;;;5050192;28;19921;-77
2023/12/27 08:50:32;;;;;;;;;;;3.90;99.90;;;;;;5051093;28;19921;-77
2023/12/27 08:52:57;;;;;;;;;;;4.00;99.90;;;;;;5051387;28;19921;-78
2023/12/27 08:55:23;;;;;;;;;;;4.00;99.90;;;;;;5051179;28;19920;-79
2023/12/27 08:57:48;;;;;;;;;;;5.50;99.90;;;;;;5048467;28;19920;-78
2023/12/27 09:00:14;;;;;;;;;;;4.30;99.90;;;;;;5051516;28;19927;-78
2023/12/27 09:02:40;;;;;;;;;;;4.10;99.90;;;;;;5050329;28;19927;-78
2023/12/27 09:05:06;;;;;;;;;;;4.10;99.90;;;;;;5067343;28;20338;-78
2023/12/27 09:07:31;;;;;;;;;;;4.10;99.90;;;;;;5051001;28;20011;-76
2023/12/27 09:09:57;;;;;;;;;;;4.70;99.90;;;;;;5049657;28;20331;-77
2023/12/27 09:12:23;;;;;;;;;;;4.10;99.90;;;;;;5041865;28;20387;-77
2023/12/27 09:14:49;;;;;;;;;;;4.10;99.90;;;;;;5035497;28;19921;-74
2023/12/27 09:17:15;;;;;;;;;;;4.30;99.90;;;;;;5042460;28;19920;-72
2023/12/27 09:19:41;;;;;;;;;;;4.20;99.90;;;;;;5044470;28;20394;-73
2023/12/27 09:22:07;;;;;;;;;;;4.20;99.90;;;;;;5047865;28;20019;-73
2023/12/27 09:24:33;;;;;;;;;;;4.20;99.90;;;;;;5046012;28;20019;-77
2023/12/27 09:26:59;;;;;;;;;;;4.30;99.90;;;;;;5042616;28;19921;-75
2023/12/27 09:29:24;;;;;;;;;;;4.60;99.90;;;;;;5032009;28;19920;-76
2023/12/27 09:31:50;;;;;;;;;;;4.60;99.90;;;;;;5041741;28;20574;-75
2023/12/27 09:34:15;;;;;;;;;;;4.40;99.90;;;;;;5044095;28;19928;-75
2023/12/27 09:36:41;;;;;;;;;;;4.40;99.90;;;;;;5046964;28;19983;-75
2023/12/27 09:39:06;;;;;;;;;;;4.40;99.90;;;;;;5046868;28;20380;-76
2023/12/27 09:41:32;;;;;;;;;;;4.60;99.90;;;;;;5044715;28;20323;-76
2023/12/27 09:43:58;;;;;;;;;;;5.10;99.90;;;;;;5049336;28;19928;-76
2023/12/27 09:46:26;;;;;;;;;;;4.50;99.90;;;;;;5050720;28;20015;-75
2023/12/27 09:48:52;;;;;;;;;;;4.70;99.90;;;;;;5048642;28;19928;-76
2023/12/27 09:51:23;;;;;;;;;;;4.50;99.90;;;;;;5046669;28;20296;-78
2023/12/27 09:53:49;;;;;;;;;;;4.50;99.90;;;;;;5050667;28;19920;-76
2023/12/27 09:56:15;;;;;;;;;;;4.50;99.90;;;;;;5031347;28;19921;-77
2023/12/27 09:58:41;;;;;;;;;;;4.80;99.90;;;;;;5050494;28;20034;-76
2023/12/27 10:01:07;;;;;;;;;;;4.60;99.90;;;;;;5048460;28;19925;-77
2023/12/27 10:03:39;;;;;;;;;;;4.60;99.90;;;;;;5036663;28;19924;-76
2023/12/27 10:06:25;;;;;;;;;;;4.60;99.90;;;;;;5047189;28;20372;-77
2023/12/27 10:08:51;;;;;;;;;;;4.70;99.90;;;;;;5046722;28;19920;-80
2023/12/27 10:11:18;;;;;;;;;;;4.60;99.90;;;;;;5040592;28;20432;-77
2023/12/27 10:13:44;;;;;;;;;;;4.70;99.90;;;;;;5036160;28;19920;-73
2023/12/27 10:16:10;;;;;;;;;;;5.50;99.90;;;;;;5041063;28;19927;-76
2023/12/27 10:18:36;;;;;;;;;;;4.70;99.90;;;;;;5053567;28;19928;-76
2023/12/27 10:21:01;;;;;;;;;;;4.70;99.90;;;;;;5033645;28;19921;-79
2023/12/27 10:23:27;;;;;;;;;;;4.90;99.90;;;;;;5047400;28;19928;-78
2023/12/27 10:25:52;;;;;;;;;;;5.10;99.90;;;;;;5050978;28;19935;-78
2023/12/27 10:28:24;;;;;;;;;;;5.20;99.90;;;;;;5047850;28;20360;-79
2023/12/27 10:30:53;;;;;;;;;;;4.90;99.90;;;;;;5075733;28;19927;-79
2023/12/27 10:33:22;;;;;;;;;;;4.90;99.90;;;;;;5070824;28;19920;-80
2023/12/27 10:35:48;;;;;;;;;;;4.90;99.90;;;;;;5053041;28;19947;-76
2023/12/27 10:38:13;;;;;;;;;;;5.00;99.90;;;;;;5053169;28;20288;-76
2023/12/27 10:40:41;;;;;;;;;;;5.20;99.90;;;;;;5052854;28;19916;-77
2023/12/27 10:43:08;;;;;;;;;;;5.10;99.90;;;;;;5058194;28;19940;-77
2023/12/27 10:45:33;;;;;;;;;;;5.60;99.90;;;;;;5054629;28;20280;-77
2023/12/27 10:48:00;;;;;;;;;;;5.10;99.90;;;;;;5069016;28;19916;-79
2023/12/27 10:50:29;;;;;;;;;;;5.20;99.90;;;;;;5046035;28;19928;-79
2023/12/27 10:53:06;;;;;;;;;;;5.10;99.90;;;;;;5035857;28;19924;-79
2023/12/27 10:55:32;;;;;;;;;;;5.30;99.90;;;;;;5071169;28;19928;-77
2023/12/27 10:58:03;;;;;;;;;;;5.20;99.90;;;;;;5038024;28;19920;-78
2023/12/27 11:00:29;;;;;;;;;;;5.20;99.90;;;;;;5053263;28;20299;-80
2023/12/27 11:02:55;;;;;;;;;;;6.00;99.90;;;;;;5025684;28;19924;-78
2023/12/27 11:05:22;;;;;;;;;;;5.30;99.90;;;;;;5052561;28;19945;-78
2023/12/27 11:07:49;;;;;;;;;;;5.30;99.90;;;;;;5070290;28;19927;-79
2023/12/27 11:10:15;;;;;;;;;;;5.40;99.90;;;;;;5041700;28;20398;-79
2023/12/27 11:12:43;;;;;;;;;;;5.40;99.90;;;;;;5043419;28;20411;-78
2023/12/27 11:15:09;;;;;;;;;;;5.40;99.90;;;;;;5050624;28;19974;-77
2023/12/27 11:17:35;;;;;;;;;;;5.50;99.90;;;;;;5052484;28;19943;-76
2023/12/27 11:20:02;;;;;;;;;;;5.50;99.90;;;;;;5046875;28;19927;-79
2023/12/27 11:22:27;;;;;;;;;;;5.50;99.90;;;;;;5069310;28;19920;-78
2023/12/27 11:24:54;;;;;;;;;;;5.60;99.90;;;;;;5050713;28;20047;-78
2023/12/27 11:27:19;;;;;;;;;;;5.60;99.90;;;;;;5069917;28;19925;-76
2023/12/27 11:29:46;;;;;;;;;;;5.60;99.90;;;;;;5043154;28;19929;-77
2023/12/27 11:32:11;;;;;;;;;;;5.60;99.90;;;;;;5068449;28;19924;-77
2023/12/27 11:34:37;;;;;;;;;;;5.70;99.90;;;;;;5052110;28;19920;-79
2023/12/27 11:37:03;;;;;;;;;;;5.70;99.90;;;;;;5085987;28;20291;-78
2023/12/27 11:39:29;;;;;;;;;;;5.60;99.90;;;;;;5052313;28;19920;-78
2023/12/27 11:41:54;;;;;;;;;;;5.70;99.90;;;;;;5050842;28;19921;-79
2023/12/27 11:44:20;;;;;;;;;;;5.70;99.90;;;;;;5031447;28;19971;-78
2023/12/27 11:46:46;;;;;;;;;;;5.70;99.90;;;;;;5033590;28;19925;-78
2023/12/27 11:49:17;;;;;;;;;;;5.70;99.90;;;;;;5041479;28;19924;-74
2023/12/27 11:51:43;;;;;;;;;;;5.80;99.90;;;;;;5039528;28;20354;-73
2023/12/27 11:54:19;;;;;;;;;;;5.80;99.90;;;;;;5045200;28;19968;-74
2023/12/27 11:56:45;;;;;;;;;;;5.80;99.90;;;;;;5049926;28;19920;-73
2023/12/27 11:59:11;;;;;;;;;;;5.70;99.90;;;;;;5046069;28;19917;-73
2023/12/27 12:01:37;;;;;;;;;;;5.70;99.90;;;;;;5051508;28;19925;-75
2023/12/27 12:04:21;;;;;;;;;;;5.80;99.90;;;;;;5064890;28;19928;-75
2023/12/27 12:06:53;;;;;;;;;;;5.80;99.90;;;;;;5050600;28;19920;-74
2023/12/27 12:09:21;;;;;;;;;;;5.80;99.90;;;;;;5061263;28;19921;-75
2023/12/27 12:11:47;;;;;;;;;;;5.80;99.90;;;;;;5063194;28;19924;-75
2023/12/27 12:14:14;;;;;;;;;;;5.80;99.90;;;;;;5035670;28;20376;-75
2023/12/27 12:16:39;;;;;;;;;;;5.70;99.90;;;;;;5048198;28;20387;-75
2023/12/27 12:19:08;;;;;;;;;;;5.80;99.90;;;;;;5057882;28;19970;-74
2023/12/27 12:21:33;;;;;;;;;;;5.70;99.90;;;;;;5067200;28;19920;-74
2023/12/27 12:24:05;;;;;;;;;;;5.70;99.90;;;;;;5050777;28;20532;-75
2023/12/27 12:26:31;;;;;;;;;;;5.70;99.90;;;;;;5068843;28;19920;-75
2023/12/27 12:28:58;;;;;;;;;;;5.80;99.90;;;;;;5050944;28;19932;-75
2023/12/27 12:31:23;;;;;;;;;;;5.70;99.90;;;;;;5051721;28;20124;-74
2023/12/27 12:33:49;;;;;;;;;;;5.70;99.90;;;;;;5068187;28;20292;-73
2023/12/27 12:36:16;;;;;;;;;;;5.70;99.90;;;;;;5047578;28;19929;-75
2023/12/27 12:38:41;;;;;;;;;;;5.70;99.90;;;;;;5048738;28;19990;-74
2023/12/27 12:41:07;;;;;;;;;;;5.70;99.90;;;;;;5065580;28;20395;-74
2023/12/27 12:43:33;;;;;;;;;;;5.70;99.90;;;;;;5067412;28;19928;-74
2023/12/27 12:45:58;;;;;;;;;;;6.00;99.90;;;;;;5068904;28;19920;-75
2023/12/27 12:48:25;;;;;;;;;;;5.90;99.90;;;;;;5047043;28;20295;-74
2023/12/27 12:51:10;;;;;;;;;;;5.70;99.90;;;;;;5037333;28;19974;-74
2023/12/27 12:53:36;;;;;;;;;;;5.70;99.90;;;;;;5050484;28;20404;-74
2023/12/27 12:56:02;;;;;;;;;;;5.60;99.90;;;;;;5048887;28;20333;-75
2023/12/27 12:58:28;;;;;;;;;;;5.70;99.90;;;;;;5049730;28;20144;-73
2023/12/27 13:00:53;;;;;;;;;;;5.70;99.90;;;;;;5051812;28;19927;-73
2023/12/27 13:03:19;;;;;;;;;;;5.70;99.90;;;;;;5030615;28;19928;-74
2023/12/27 13:05:45;;;;;;;;;;;5.70;99.90;;;;;;5038714;28;20065;-74
2023/12/27 13:08:11;;;;;;;;;;;5.70;99.90;;;;;;5049789;28;20022;-74
2023/12/27 13:10:37;;;;;;;;;;;5.70;99.90;;;;;;5051283;28;19920;-74
2023/12/27 13:13:03;;;;;;;;;;;5.80;99.90;;;;;;5049325;28;19924;-74
2023/12/27 13:15:28;;;;;;;;;;;5.70;99.90;;;;;;5046287;28;20447;-74
2023/12/27 13:17:54;;;;;;;;;;;5.80;99.90;;;;;;5044773;28;20015;-73
2023/12/27 13:20:19;;;;;;;;;;;5.80;99.90;;;;;;5055214;28;19924;-73
2023/12/27 13:22:45;;;;;;;;;;;5.80;99.90;;;;;;5054596;28;19920;-74
2023/12/27 13:25:10;;;;;;;;;;;5.80;99.90;;;;;;5054742;28;19920;-75
2023/12/27 13:27:36;;;;;;;;;;;5.80;99.90;;;;;;5054941;28;19930;-74
2023/12/27 13:30:05;;;;;;;;;;;5.90;99.90;;;;;;5053354;28;19978;-75
2023/12/27 13:32:30;;;;;;;;;;;5.90;99.90;;;;;;5051247;28;20372;-74
2023/12/27 13:34:56;;;;;;;;;;;5.90;99.90;;;;;;5065103;28;19927;-74
2023/12/27 13:37:21;;;;;;;;;;;5.90;99.90;;;;;;5072163;28;19973;-75
2023/12/27 13:39:47;;;;;;;;;;;5.90;99.90;;;;;;5054405;28;19931;-75
2023/12/27 13:42:13;;;;;;;;;;;5.90;99.90;;;;;;5069796;28;19974;-75
2023/12/27 13:44:38;;;;;;;;;;;5.90;99.90;;;;;;5047577;28;19920;-75
2023/12/27 13:47:04;;;;;;;;;;;5.90;99.90;;;;;;5054619;28;20382;-74
2023/12/27 13:49:29;;;;;;;;;;;6.00;99.90;;;;;;5052813;28;19974;-75
2023/12/27 13:51:55;;;;;;;;;;;5.90;99.90;;;;;;5052835;28;19924;-74
2023/12/27 13:54:21;;;;;;;;;;;6.00;99.90;;;;;;5054729;28;20212;-75
2023/12/27 13:56:46;;;;;;;;;;;6.00;99.90;;;;;;5054376;28;20308;-75
2023/12/27 13:59:12;;;;;;;;;;;6.00;99.90;;;;;;5052831;28;19927;-75
2023/12/27 14:01:39;;;;;;;;;;;6.00;99.90;;;;;;5055163;28;20014;-75
2023/12/27 14:04:08;;;;;;;;;;;6.10;99.90;;;;;;5054019;28;19920;-75
2023/12/27 14:06:36;;;;;;;;;;;6.00;99.90;;;;;;5053185;28;19921;-75
2023/12/27 14:09:03;;;;;;;;;;;6.10;99.90;;;;;;5050263;28;19920;-75
2023/12/27 14:11:29;;;;;;;;;;;6.10;99.90;;;;;;5052287;28;20409;-75
2023/12/27 14:13:54;;;;;;;;;;;6.10;99.90;;;;;;5052508;28;20011;-75
2023/12/27 14:16:20;;;;;;;;;;;6.10;99.90;;;;;;5050220;28;20019;-75
2023/12/27 14:18:46;;;;;;;;;;;6.10;99.90;;;;;;5052510;28;19946;-75
2023/12/27 14:21:12;;;;;;;;;;;6.10;99.90;;;;;;5050613;28;19920;-75
2023/12/27 14:23:37;;;;;;;;;;;6.20;99.90;;;;;;5052481;28;19966;-75